sensor_id;sensor_type;location;lat;lon;timestamp;P1;durP1;ratioP1;P2;durP2;ratioP2
28766;SDS011;15921;52.034;20.650;2023-07-08T00:01:21;18.58;;;6.25;;
28766;SDS011;15921;52.034;20.650;2023-07-08T00:03:47;14.43;;;6.55;;
28766;SDS011;15921;52.034;20.650;2023-07-08T00:06:20;12.35;;;5.80;;
28766;SDS011;15921;52.034;20.650;2023-07-08T00:08:47;10.23;;;5.75;;
28766;SDS011;15921;52.034;20.650;2023-07-08T00:11:13;12.60;;;6.47;;
28766;SDS011;15921;52.034;20.650;2023-07-08T00:13:40;12.25;;;6.20;;
28766;SDS011;15921;52.034;20.650;2023-07-08T00:16:13;14.32;;;6.40;;
28766;SDS011;15921;52.034;20.650;2023-07-08T00:18:40;12.45;;;6.53;;
28766;SDS011;15921;52.034;20.650;2023-07-08T00:21:09;10.52;;;6.07;;
28766;SDS011;15921;52.034;20.650;2023-07-08T00:23:39;7.95;;;5.75;;
28766;SDS011;15921;52.034;20.650;2023-07-08T00:26:11;10.25;;;6.15;;
28766;SDS011;15921;52.034;20.650;2023-07-08T00:28:49;12.25;;;5.75;;
28766;SDS011;15921;52.034;20.650;2023-07-08T00:31:15;7.45;;;5.13;;
28766;SDS011;15921;52.034;20.650;2023-07-08T00:33:41;8.90;;;5.60;;
28766;SDS011;15921;52.034;20.650;2023-07-08T00:36:14;10.45;;;5.63;;
28766;SDS011;15921;52.034;20.650;2023-07-08T00:38:42;7.70;;;4.90;;
28766;SDS011;15921;52.034;20.650;2023-07-08T00:43:44;9.32;;;5.30;;
28766;SDS011;15921;52.034;20.650;2023-07-08T00:51:40;8.23;;;5.18;;
28766;SDS011;15921;52.034;20.650;2023-07-08T00:54:16;8.65;;;4.72;;
28766;SDS011;15921;52.034;20.650;2023-07-08T00:57:01;7.40;;;4.78;;
28766;SDS011;15921;52.034;20.650;2023-07-08T00:59:32;8.57;;;5.00;;
28766;SDS011;15921;52.034;20.650;2023-07-08T01:02:04;6.80;;;4.70;;
28766;SDS011;15921;52.034;20.650;2023-07-08T01:04:43;7.43;;;4.97;;
28766;SDS011;15921;52.034;20.650;2023-07-08T01:07:21;12.68;;;5.15;;
28766;SDS011;15921;52.034;20.650;2023-07-08T01:09:52;9.18;;;5.15;;
28766;SDS011;15921;52.034;20.650;2023-07-08T01:12:43;11.70;;;5.70;;
28766;SDS011;15921;52.034;20.650;2023-07-08T01:15:11;13.98;;;5.75;;
28766;SDS011;15921;52.034;20.650;2023-07-08T01:17:39;9.27;;;5.50;;
28766;SDS011;15921;52.034;20.650;2023-07-08T01:20:07;12.65;;;5.50;;
28766;SDS011;15921;52.034;20.650;2023-07-08T01:22:38;7.20;;;4.88;;
28766;SDS011;15921;52.034;20.650;2023-07-08T01:25:06;8.98;;;4.78;;
28766;SDS011;15921;52.034;20.650;2023-07-08T01:27:34;7.20;;;4.97;;
28766;SDS011;15921;52.034;20.650;2023-07-08T01:30:04;9.52;;;5.90;;
28766;SDS011;15921;52.034;20.650;2023-07-08T01:32:31;8.57;;;5.38;;
28766;SDS011;15921;52.034;20.650;2023-07-08T01:35:02;8.95;;;4.93;;
28766;SDS011;15921;52.034;20.650;2023-07-08T01:42:49;8.18;;;5.00;;
28766;SDS011;15921;52.034;20.650;2023-07-08T01:45:17;7.25;;;5.00;;
28766;SDS011;15921;52.034;20.650;2023-07-08T01:47:48;10.13;;;5.55;;
28766;SDS011;15921;52.034;20.650;2023-07-08T01:50:17;9.15;;;5.47;;
28766;SDS011;15921;52.034;20.650;2023-07-08T01:52:44;8.43;;;5.63;;
28766;SDS011;15921;52.034;20.650;2023-07-08T01:55:09;10.40;;;5.65;;
28766;SDS011;15921;52.034;20.650;2023-07-08T01:57:35;8.20;;;4.72;;
28766;SDS011;15921;52.034;20.650;2023-07-08T02:00:01;12.73;;;5.22;;
28766;SDS011;15921;52.034;20.650;2023-07-08T02:02:27;9.43;;;5.00;;
28766;SDS011;15921;52.034;20.650;2023-07-08T02:04:52;8.27;;;4.72;;
28766;SDS011;15921;52.034;20.650;2023-07-08T02:07:18;11.57;;;5.32;;
28766;SDS011;15921;52.034;20.650;2023-07-08T02:09:44;10.57;;;5.88;;
28766;SDS011;15921;52.034;20.650;2023-07-08T02:12:10;10.15;;;5.47;;
28766;SDS011;15921;52.034;20.650;2023-07-08T02:14:35;8.93;;;5.00;;
28766;SDS011;15921;52.034;20.650;2023-07-08T02:17:01;9.38;;;5.10;;
28766;SDS011;15921;52.034;20.650;2023-07-08T02:19:30;8.80;;;5.55;;
28766;SDS011;15921;52.034;20.650;2023-07-08T02:21:56;8.65;;;5.30;;
28766;SDS011;15921;52.034;20.650;2023-07-08T02:24:22;11.43;;;5.18;;
28766;SDS011;15921;52.034;20.650;2023-07-08T02:26:48;8.73;;;4.80;;
28766;SDS011;15921;52.034;20.650;2023-07-08T02:29:14;7.18;;;5.13;;
28766;SDS011;15921;52.034;20.650;2023-07-08T02:31:40;7.38;;;4.82;;
28766;SDS011;15921;52.034;20.650;2023-07-08T02:34:06;9.02;;;5.35;;
28766;SDS011;15921;52.034;20.650;2023-07-08T02:36:33;7.47;;;5.03;;
28766;SDS011;15921;52.034;20.650;2023-07-08T02:38:59;21.35;;;5.97;;
28766;SDS011;15921;52.034;20.650;2023-07-08T02:41:25;14.35;;;6.57;;
28766;SDS011;15921;52.034;20.650;2023-07-08T02:43:51;16.60;;;5.35;;
28766;SDS011;15921;52.034;20.650;2023-07-08T02:46:16;9.55;;;5.57;;
28766;SDS011;15921;52.034;20.650;2023-07-08T02:48:42;13.80;;;5.55;;
28766;SDS011;15921;52.034;20.650;2023-07-08T02:51:08;18.55;;;5.68;;
28766;SDS011;15921;52.034;20.650;2023-07-08T02:53:34;27.45;;;5.78;;
28766;SDS011;15921;52.034;20.650;2023-07-08T02:56:00;18.35;;;5.63;;
28766;SDS011;15921;52.034;20.650;2023-07-08T02:58:26;20.35;;;6.03;;
28766;SDS011;15921;52.034;20.650;2023-07-08T03:00:52;20.17;;;5.95;;
28766;SDS011;15921;52.034;20.650;2023-07-08T03:03:18;11.48;;;5.47;;
28766;SDS011;15921;52.034;20.650;2023-07-08T03:05:52;11.10;;;5.15;;
28766;SDS011;15921;52.034;20.650;2023-07-08T03:08:20;12.68;;;5.88;;
28766;SDS011;15921;52.034;20.650;2023-07-08T03:10:47;13.63;;;5.25;;
28766;SDS011;15921;52.034;20.650;2023-07-08T03:13:13;10.23;;;5.15;;
28766;SDS011;15921;52.034;20.650;2023-07-08T03:15:39;13.70;;;5.07;;
28766;SDS011;15921;52.034;20.650;2023-07-08T03:18:05;17.40;;;5.38;;
28766;SDS011;15921;52.034;20.650;2023-07-08T03:20:33;11.43;;;5.32;;
28766;SDS011;15921;52.034;20.650;2023-07-08T03:23:01;9.52;;;4.97;;
28766;SDS011;15921;52.034;20.650;2023-07-08T03:25:27;11.50;;;5.32;;
28766;SDS011;15921;52.034;20.650;2023-07-08T03:27:53;8.18;;;4.95;;
28766;SDS011;15921;52.034;20.650;2023-07-08T03:30:20;9.18;;;5.10;;
28766;SDS011;15921;52.034;20.650;2023-07-08T03:32:45;10.00;;;5.13;;
28766;SDS011;15921;52.034;20.650;2023-07-08T03:35:11;8.73;;;4.85;;
28766;SDS011;15921;52.034;20.650;2023-07-08T03:37:37;7.63;;;5.38;;
28766;SDS011;15921;52.034;20.650;2023-07-08T03:40:03;8.73;;;5.00;;
28766;SDS011;15921;52.034;20.650;2023-07-08T03:42:29;9.50;;;5.40;;
28766;SDS011;15921;52.034;20.650;2023-07-08T03:44:54;8.55;;;5.32;;
28766;SDS011;15921;52.034;20.650;2023-07-08T03:47:20;10.30;;;5.20;;
28766;SDS011;15921;52.034;20.650;2023-07-08T03:49:46;12.73;;;5.35;;
28766;SDS011;15921;52.034;20.650;2023-07-08T03:52:14;6.75;;;5.35;;
28766;SDS011;15921;52.034;20.650;2023-07-08T03:54:41;7.55;;;4.63;;
28766;SDS011;15921;52.034;20.650;2023-07-08T03:57:07;6.68;;;4.93;;
28766;SDS011;15921;52.034;20.650;2023-07-08T03:59:33;6.05;;;4.50;;
28766;SDS011;15921;52.034;20.650;2023-07-08T04:01:59;11.38;;;4.88;;
28766;SDS011;15921;52.034;20.650;2023-07-08T04:04:24;8.40;;;4.65;;
28766;SDS011;15921;52.034;20.650;2023-07-08T04:06:50;9.05;;;5.43;;
28766;SDS011;15921;52.034;20.650;2023-07-08T04:09:16;8.02;;;5.13;;
28766;SDS011;15921;52.034;20.650;2023-07-08T04:11:42;7.60;;;5.10;;
28766;SDS011;15921;52.034;20.650;2023-07-08T04:14:08;6.65;;;4.90;;
28766;SDS011;15921;52.034;20.650;2023-07-08T04:16:45;9.63;;;5.15;;
28766;SDS011;15921;52.034;20.650;2023-07-08T04:19:14;10.15;;;5.55;;
28766;SDS011;15921;52.034;20.650;2023-07-08T04:21:41;6.88;;;4.93;;
28766;SDS011;15921;52.034;20.650;2023-07-08T04:24:09;6.80;;;4.65;;
28766;SDS011;15921;52.034;20.650;2023-07-08T04:26:36;10.52;;;4.43;;
28766;SDS011;15921;52.034;20.650;2023-07-08T04:29:04;5.43;;;4.50;;
28766;SDS011;15921;52.034;20.650;2023-07-08T04:31:50;6.68;;;4.70;;
28766;SDS011;15921;52.034;20.650;2023-07-08T04:34:16;5.85;;;4.45;;
28766;SDS011;15921;52.034;20.650;2023-07-08T04:36:43;5.97;;;4.35;;
28766;SDS011;15921;52.034;20.650;2023-07-08T04:39:09;6.65;;;4.40;;
28766;SDS011;15921;52.034;20.650;2023-07-08T04:41:36;7.25;;;4.10;;
28766;SDS011;15921;52.034;20.650;2023-07-08T04:44:08;8.13;;;4.85;;
28766;SDS011;15921;52.034;20.650;2023-07-08T04:46:40;8.95;;;3.88;;
28766;SDS011;15921;52.034;20.650;2023-07-08T04:49:10;10.20;;;4.43;;
28766;SDS011;15921;52.034;20.650;2023-07-08T04:51:36;6.55;;;3.97;;
28766;SDS011;15921;52.034;20.650;2023-07-08T04:54:02;9.65;;;4.03;;
28766;SDS011;15921;52.034;20.650;2023-07-08T04:56:36;6.15;;;4.15;;
28766;SDS011;15921;52.034;20.650;2023-07-08T04:59:07;8.48;;;4.28;;
28766;SDS011;15921;52.034;20.650;2023-07-08T05:01:34;9.88;;;4.10;;
28766;SDS011;15921;52.034;20.650;2023-07-08T05:04:00;6.15;;;3.80;;
28766;SDS011;15921;52.034;20.650;2023-07-08T05:06:26;7.90;;;3.90;;
28766;SDS011;15921;52.034;20.650;2023-07-08T05:08:52;6.32;;;3.92;;
28766;SDS011;15921;52.034;20.650;2023-07-08T05:11:18;6.47;;;3.83;;
28766;SDS011;15921;52.034;20.650;2023-07-08T05:13:44;6.30;;;3.40;;
28766;SDS011;15921;52.034;20.650;2023-07-08T05:16:10;7.82;;;3.38;;
28766;SDS011;15921;52.034;20.650;2023-07-08T05:18:35;6.43;;;3.42;;
28766;SDS011;15921;52.034;20.650;2023-07-08T05:21:01;6.65;;;3.25;;
28766;SDS011;15921;52.034;20.650;2023-07-08T05:23:28;5.47;;;3.17;;
28766;SDS011;15921;52.034;20.650;2023-07-08T05:25:53;7.43;;;3.33;;
28766;SDS011;15921;52.034;20.650;2023-07-08T05:28:19;4.10;;;3.50;;
28766;SDS011;15921;52.034;20.650;2023-07-08T05:30:46;5.97;;;3.50;;
28766;SDS011;15921;52.034;20.650;2023-07-08T05:33:12;4.72;;;3.63;;
28766;SDS011;15921;52.034;20.650;2023-07-08T05:35:38;5.68;;;3.63;;
28766;SDS011;15921;52.034;20.650;2023-07-08T05:38:04;7.35;;;3.50;;
28766;SDS011;15921;52.034;20.650;2023-07-08T05:40:30;9.32;;;3.67;;
28766;SDS011;15921;52.034;20.650;2023-07-08T05:42:56;4.15;;;3.10;;
28766;SDS011;15921;52.034;20.650;2023-07-08T05:45:21;5.53;;;3.53;;
28766;SDS011;15921;52.034;20.650;2023-07-08T05:47:47;7.15;;;3.08;;
28766;SDS011;15921;52.034;20.650;2023-07-08T05:50:13;4.60;;;2.78;;
28766;SDS011;15921;52.034;20.650;2023-07-08T05:52:39;3.80;;;3.08;;
28766;SDS011;15921;52.034;20.650;2023-07-08T05:55:04;6.28;;;2.65;;
28766;SDS011;15921;52.034;20.650;2023-07-08T05:57:30;6.10;;;3.47;;
28766;SDS011;15921;52.034;20.650;2023-07-08T05:59:56;3.40;;;2.80;;
28766;SDS011;15921;52.034;20.650;2023-07-08T06:02:22;6.15;;;3.10;;
28766;SDS011;15921;52.034;20.650;2023-07-08T06:04:50;5.90;;;2.67;;
28766;SDS011;15921;52.034;20.650;2023-07-08T06:07:16;4.97;;;2.30;;
28766;SDS011;15921;52.034;20.650;2023-07-08T06:09:42;6.88;;;2.97;;
28766;SDS011;15921;52.034;20.650;2023-07-08T06:12:10;5.75;;;3.08;;
28766;SDS011;15921;52.034;20.650;2023-07-08T06:14:36;5.68;;;2.35;;
28766;SDS011;15921;52.034;20.650;2023-07-08T06:17:03;12.20;;;3.15;;
28766;SDS011;15921;52.034;20.650;2023-07-08T06:19:29;4.32;;;2.40;;
28766;SDS011;15921;52.034;20.650;2023-07-08T06:21:55;7.10;;;2.35;;
28766;SDS011;15921;52.034;20.650;2023-07-08T06:24:21;4.45;;;2.28;;
28766;SDS011;15921;52.034;20.650;2023-07-08T06:26:47;7.95;;;2.50;;
28766;SDS011;15921;52.034;20.650;2023-07-08T06:29:12;3.58;;;2.35;;
28766;SDS011;15921;52.034;20.650;2023-07-08T06:31:38;6.13;;;2.10;;
28766;SDS011;15921;52.034;20.650;2023-07-08T06:34:04;8.88;;;2.45;;
28766;SDS011;15921;52.034;20.650;2023-07-08T06:36:30;7.65;;;2.45;;
28766;SDS011;15921;52.034;20.650;2023-07-08T06:38:56;5.85;;;2.50;;
28766;SDS011;15921;52.034;20.650;2023-07-08T06:41:22;3.85;;;2.10;;
28766;SDS011;15921;52.034;20.650;2023-07-08T06:43:47;3.55;;;2.22;;
28766;SDS011;15921;52.034;20.650;2023-07-08T06:46:13;3.72;;;2.67;;
28766;SDS011;15921;52.034;20.650;2023-07-08T06:48:39;3.90;;;2.20;;
28766;SDS011;15921;52.034;20.650;2023-07-08T06:51:06;5.45;;;2.40;;
28766;SDS011;15921;52.034;20.650;2023-07-08T06:53:32;4.22;;;2.42;;
28766;SDS011;15921;52.034;20.650;2023-07-08T06:55:58;6.70;;;2.25;;
28766;SDS011;15921;52.034;20.650;2023-07-08T06:58:24;3.03;;;2.15;;
28766;SDS011;15921;52.034;20.650;2023-07-08T07:00:50;4.70;;;2.15;;
28766;SDS011;15921;52.034;20.650;2023-07-08T07:03:15;7.88;;;2.20;;
28766;SDS011;15921;52.034;20.650;2023-07-08T07:05:42;4.05;;;2.35;;
28766;SDS011;15921;52.034;20.650;2023-07-08T07:08:08;3.42;;;2.13;;
28766;SDS011;15921;52.034;20.650;2023-07-08T07:10:34;6.50;;;1.90;;
28766;SDS011;15921;52.034;20.650;2023-07-08T07:13:00;6.88;;;2.40;;
28766;SDS011;15921;52.034;20.650;2023-07-08T07:15:26;3.72;;;2.22;;
28766;SDS011;15921;52.034;20.650;2023-07-08T07:17:52;6.18;;;2.50;;
28766;SDS011;15921;52.034;20.650;2023-07-08T07:20:17;3.55;;;2.08;;
28766;SDS011;15921;52.034;20.650;2023-07-08T07:22:43;8.02;;;2.20;;
28766;SDS011;15921;52.034;20.650;2023-07-08T07:25:09;3.63;;;2.33;;
28766;SDS011;15921;52.034;20.650;2023-07-08T07:27:35;7.20;;;2.38;;
28766;SDS011;15921;52.034;20.650;2023-07-08T07:30:01;7.40;;;2.10;;
28766;SDS011;15921;52.034;20.650;2023-07-08T07:32:26;3.35;;;2.28;;
28766;SDS011;15921;52.034;20.650;2023-07-08T07:34:54;8.43;;;2.33;;
28766;SDS011;15921;52.034;20.650;2023-07-08T07:37:20;4.78;;;2.13;;
28766;SDS011;15921;52.034;20.650;2023-07-08T07:39:47;3.47;;;2.17;;
28766;SDS011;15921;52.034;20.650;2023-07-08T07:42:14;2.95;;;2.15;;
28766;SDS011;15921;52.034;20.650;2023-07-08T07:44:40;2.95;;;2.38;;
28766;SDS011;15921;52.034;20.650;2023-07-08T07:47:07;5.03;;;2.38;;
28766;SDS011;15921;52.034;20.650;2023-07-08T07:49:34;8.05;;;2.40;;
28766;SDS011;15921;52.034;20.650;2023-07-08T07:52:00;4.93;;;2.40;;
28766;SDS011;15921;52.034;20.650;2023-07-08T07:54:26;4.40;;;2.20;;
28766;SDS011;15921;52.034;20.650;2023-07-08T07:56:52;9.85;;;2.63;;
28766;SDS011;15921;52.034;20.650;2023-07-08T07:59:21;5.07;;;2.30;;
28766;SDS011;15921;52.034;20.650;2023-07-08T08:01:46;8.13;;;2.30;;
28766;SDS011;15921;52.034;20.650;2023-07-08T08:04:12;8.68;;;2.70;;
28766;SDS011;15921;52.034;20.650;2023-07-08T08:06:38;6.07;;;2.63;;
28766;SDS011;15921;52.034;20.650;2023-07-08T08:09:04;5.20;;;2.25;;
28766;SDS011;15921;52.034;20.650;2023-07-08T08:11:31;4.20;;;2.22;;
28766;SDS011;15921;52.034;20.650;2023-07-08T08:13:58;3.72;;;2.03;;
28766;SDS011;15921;52.034;20.650;2023-07-08T08:16:25;3.72;;;2.05;;
28766;SDS011;15921;52.034;20.650;2023-07-08T08:18:51;6.28;;;2.47;;
28766;SDS011;15921;52.034;20.650;2023-07-08T08:21:17;7.07;;;2.47;;
28766;SDS011;15921;52.034;20.650;2023-07-08T08:23:43;3.47;;;2.00;;
28766;SDS011;15921;52.034;20.650;2023-07-08T08:26:08;7.07;;;2.53;;
28766;SDS011;15921;52.034;20.650;2023-07-08T08:28:34;3.10;;;2.50;;
28766;SDS011;15921;52.034;20.650;2023-07-08T08:31:00;5.60;;;2.38;;
28766;SDS011;15921;52.034;20.650;2023-07-08T08:33:26;5.07;;;2.50;;
28766;SDS011;15921;52.034;20.650;2023-07-08T08:35:51;4.57;;;2.05;;
28766;SDS011;15921;52.034;20.650;2023-07-08T08:38:17;6.03;;;3.47;;
28766;SDS011;15921;52.034;20.650;2023-07-08T08:40:43;3.83;;;2.50;;
28766;SDS011;15921;52.034;20.650;2023-07-08T08:43:13;4.10;;;2.17;;
28766;SDS011;15921;52.034;20.650;2023-07-08T08:48:30;4.20;;;2.35;;
28766;SDS011;15921;52.034;20.650;2023-07-08T08:51:08;5.43;;;2.33;;
28766;SDS011;15921;52.034;20.650;2023-07-08T08:53:38;4.20;;;2.60;;
28766;SDS011;15921;52.034;20.650;2023-07-08T09:02:20;4.68;;;2.83;;
28766;SDS011;15921;52.034;20.650;2023-07-08T09:05:07;2.63;;;1.95;;
28766;SDS011;15921;52.034;20.650;2023-07-08T09:07:45;3.70;;;2.55;;
28766;SDS011;15921;52.034;20.650;2023-07-08T09:13:14;4.00;;;2.20;;
28766;SDS011;15921;52.034;20.650;2023-07-08T09:15:46;4.43;;;2.80;;
28766;SDS011;15921;52.034;20.650;2023-07-08T09:18:38;3.40;;;2.22;;
28766;SDS011;15921;52.034;20.650;2023-07-08T09:21:30;4.50;;;2.10;;
28766;SDS011;15921;52.034;20.650;2023-07-08T09:23:58;2.88;;;2.53;;
28766;SDS011;15921;52.034;20.650;2023-07-08T09:26:28;7.68;;;2.70;;
28766;SDS011;15921;52.034;20.650;2023-07-08T09:28:56;4.60;;;2.40;;
28766;SDS011;15921;52.034;20.650;2023-07-08T09:31:24;4.75;;;2.70;;
28766;SDS011;15921;52.034;20.650;2023-07-08T09:36:41;5.38;;;2.38;;
28766;SDS011;15921;52.034;20.650;2023-07-08T09:39:13;6.90;;;2.50;;
28766;SDS011;15921;52.034;20.650;2023-07-08T09:41:44;6.60;;;2.42;;
28766;SDS011;15921;52.034;20.650;2023-07-08T09:44:22;5.25;;;2.47;;
28766;SDS011;15921;52.034;20.650;2023-07-08T09:46:51;4.97;;;2.55;;
28766;SDS011;15921;52.034;20.650;2023-07-08T09:51:52;6.90;;;2.58;;
28766;SDS011;15921;52.034;20.650;2023-07-08T09:54:19;3.53;;;2.30;;
28766;SDS011;15921;52.034;20.650;2023-07-08T09:56:56;5.00;;;2.90;;
28766;SDS011;15921;52.034;20.650;2023-07-08T09:59:26;7.38;;;2.55;;
28766;SDS011;15921;52.034;20.650;2023-07-08T10:01:58;3.53;;;2.20;;
28766;SDS011;15921;52.034;20.650;2023-07-08T10:04:25;3.65;;;2.55;;
28766;SDS011;15921;52.034;20.650;2023-07-08T10:06:51;4.30;;;2.58;;
28766;SDS011;15921;52.034;20.650;2023-07-08T10:09:20;7.70;;;2.50;;
28766;SDS011;15921;52.034;20.650;2023-07-08T10:11:53;3.85;;;2.13;;
28766;SDS011;15921;52.034;20.650;2023-07-08T10:14:27;3.17;;;2.15;;
28766;SDS011;15921;52.034;20.650;2023-07-08T10:16:58;4.68;;;2.30;;
28766;SDS011;15921;52.034;20.650;2023-07-08T10:19:24;3.92;;;2.25;;
28766;SDS011;15921;52.034;20.650;2023-07-08T10:27:57;3.63;;;2.40;;
28766;SDS011;15921;52.034;20.650;2023-07-08T10:30:22;3.97;;;2.63;;
28766;SDS011;15921;52.034;20.650;2023-07-08T10:36:05;5.07;;;2.42;;
28766;SDS011;15921;52.034;20.650;2023-07-08T10:52:12;6.18;;;2.30;;
28766;SDS011;15921;52.034;20.650;2023-07-08T10:58:13;3.42;;;2.03;;
28766;SDS011;15921;52.034;20.650;2023-07-08T11:06:34;5.65;;;2.20;;
28766;SDS011;15921;52.034;20.650;2023-07-08T11:09:09;2.47;;;1.65;;
28766;SDS011;15921;52.034;20.650;2023-07-08T11:11:52;4.32;;;2.50;;
28766;SDS011;15921;52.034;20.650;2023-07-08T11:14:27;2.80;;;2.33;;
28766;SDS011;15921;52.034;20.650;2023-07-08T11:19:54;7.43;;;2.40;;
28766;SDS011;15921;52.034;20.650;2023-07-08T11:22:25;4.93;;;2.13;;
28766;SDS011;15921;52.034;20.650;2023-07-08T11:24:55;8.63;;;2.10;;
28766;SDS011;15921;52.034;20.650;2023-07-08T11:27:27;8.15;;;2.25;;
28766;SDS011;15921;52.034;20.650;2023-07-08T11:29:59;2.95;;;2.05;;
28766;SDS011;15921;52.034;20.650;2023-07-08T11:32:40;2.78;;;2.15;;
28766;SDS011;15921;52.034;20.650;2023-07-08T11:35:19;5.28;;;2.13;;
28766;SDS011;15921;52.034;20.650;2023-07-08T11:38:16;4.57;;;2.30;;
28766;SDS011;15921;52.034;20.650;2023-07-08T11:43:25;8.50;;;2.13;;
28766;SDS011;15921;52.034;20.650;2023-07-08T11:45:54;2.83;;;2.00;;
28766;SDS011;15921;52.034;20.650;2023-07-08T11:48:26;7.82;;;2.45;;
28766;SDS011;15921;52.034;20.650;2023-07-08T11:50:55;3.90;;;2.40;;
28766;SDS011;15921;52.034;20.650;2023-07-08T11:55:58;8.73;;;2.10;;
28766;SDS011;15921;52.034;20.650;2023-07-08T11:58:30;4.05;;;2.10;;
28766;SDS011;15921;52.034;20.650;2023-07-08T12:01:26;8.18;;;2.40;;
28766;SDS011;15921;52.034;20.650;2023-07-08T12:04:01;3.60;;;2.10;;
28766;SDS011;15921;52.034;20.650;2023-07-08T12:06:44;4.78;;;2.30;;
28766;SDS011;15921;52.034;20.650;2023-07-08T12:09:27;3.70;;;2.10;;
28766;SDS011;15921;52.034;20.650;2023-07-08T12:12:01;3.55;;;2.05;;
28766;SDS011;15921;52.034;20.650;2023-07-08T12:14:30;6.68;;;2.28;;
28766;SDS011;15921;52.034;20.650;2023-07-08T12:16:57;3.60;;;2.10;;
28766;SDS011;15921;52.034;20.650;2023-07-08T12:19:23;5.88;;;2.25;;
28766;SDS011;15921;52.034;20.650;2023-07-08T12:21:52;3.00;;;2.20;;
28766;SDS011;15921;52.034;20.650;2023-07-08T12:24:18;3.53;;;1.88;;
28766;SDS011;15921;52.034;20.650;2023-07-08T12:26:50;2.45;;;1.88;;
28766;SDS011;15921;52.034;20.650;2023-07-08T12:29:16;2.95;;;1.88;;
28766;SDS011;15921;52.034;20.650;2023-07-08T12:31:42;3.05;;;1.75;;
28766;SDS011;15921;52.034;20.650;2023-07-08T12:34:14;2.50;;;1.58;;
28766;SDS011;15921;52.034;20.650;2023-07-08T12:36:42;4.47;;;1.80;;
28766;SDS011;15921;52.034;20.650;2023-07-08T12:39:16;3.42;;;2.05;;
28766;SDS011;15921;52.034;20.650;2023-07-08T12:41:43;3.90;;;1.70;;
28766;SDS011;15921;52.034;20.650;2023-07-08T12:44:31;3.78;;;1.92;;
28766;SDS011;15921;52.034;20.650;2023-07-08T12:47:00;3.15;;;1.90;;
28766;SDS011;15921;52.034;20.650;2023-07-08T12:49:27;3.15;;;1.92;;
28766;SDS011;15921;52.034;20.650;2023-07-08T12:51:55;4.57;;;1.85;;
28766;SDS011;15921;52.034;20.650;2023-07-08T12:54:20;2.20;;;1.83;;
28766;SDS011;15921;52.034;20.650;2023-07-08T12:56:47;2.40;;;1.65;;
28766;SDS011;15921;52.034;20.650;2023-07-08T12:59:20;4.55;;;2.22;;
28766;SDS011;15921;52.034;20.650;2023-07-08T13:01:48;2.95;;;1.83;;
28766;SDS011;15921;52.034;20.650;2023-07-08T13:04:14;3.47;;;2.03;;
28766;SDS011;15921;52.034;20.650;2023-07-08T13:06:42;6.20;;;1.58;;
28766;SDS011;15921;52.034;20.650;2023-07-08T13:12:13;3.58;;;1.50;;
28766;SDS011;15921;52.034;20.650;2023-07-08T13:14:41;6.95;;;1.85;;
28766;SDS011;15921;52.034;20.650;2023-07-08T13:17:11;4.00;;;1.90;;
28766;SDS011;15921;52.034;20.650;2023-07-08T13:19:41;5.10;;;1.70;;
28766;SDS011;15921;52.034;20.650;2023-07-08T13:22:15;7.88;;;1.92;;
28766;SDS011;15921;52.034;20.650;2023-07-08T13:24:43;2.60;;;1.65;;
28766;SDS011;15921;52.034;20.650;2023-07-08T13:27:14;10.50;;;1.83;;
28766;SDS011;15921;52.034;20.650;2023-07-08T13:29:51;3.22;;;1.73;;
28766;SDS011;15921;52.034;20.650;2023-07-08T13:32:19;5.80;;;1.85;;
28766;SDS011;15921;52.034;20.650;2023-07-08T13:34:44;2.55;;;1.83;;
28766;SDS011;15921;52.034;20.650;2023-07-08T13:37:14;1.50;;;1.30;;
28766;SDS011;15921;52.034;20.650;2023-07-08T13:39:43;5.85;;;1.95;;
28766;SDS011;15921;52.034;20.650;2023-07-08T13:42:10;4.45;;;1.98;;
28766;SDS011;15921;52.034;20.650;2023-07-08T13:44:46;7.50;;;2.00;;
28766;SDS011;15921;52.034;20.650;2023-07-08T13:47:20;1.98;;;1.60;;
28766;SDS011;15921;52.034;20.650;2023-07-08T13:49:56;3.05;;;1.75;;
28766;SDS011;15921;52.034;20.650;2023-07-08T13:52:37;5.53;;;1.70;;
28766;SDS011;15921;52.034;20.650;2023-07-08T13:55:09;2.78;;;1.60;;
28766;SDS011;15921;52.034;20.650;2023-07-08T13:57:44;2.60;;;2.00;;
28766;SDS011;15921;52.034;20.650;2023-07-08T14:00:10;3.47;;;1.50;;
28766;SDS011;15921;52.034;20.650;2023-07-08T14:02:36;1.65;;;1.55;;
28766;SDS011;15921;52.034;20.650;2023-07-08T14:05:04;2.90;;;1.77;;
28766;SDS011;15921;52.034;20.650;2023-07-08T14:07:34;4.95;;;1.75;;
28766;SDS011;15921;52.034;20.650;2023-07-08T14:09:59;5.97;;;2.00;;
28766;SDS011;15921;52.034;20.650;2023-07-08T14:12:25;3.55;;;1.80;;
28766;SDS011;15921;52.034;20.650;2023-07-08T14:14:51;7.70;;;2.05;;
28766;SDS011;15921;52.034;20.650;2023-07-08T14:17:26;2.25;;;1.60;;
28766;SDS011;15921;52.034;20.650;2023-07-08T14:19:52;6.40;;;1.70;;
28766;SDS011;15921;52.034;20.650;2023-07-08T14:24:49;2.55;;;1.40;;
28766;SDS011;15921;52.034;20.650;2023-07-08T14:27:14;5.38;;;1.60;;
28766;SDS011;15921;52.034;20.650;2023-07-08T14:29:42;4.75;;;1.73;;
28766;SDS011;15921;52.034;20.650;2023-07-08T14:34:55;8.05;;;2.22;;
28766;SDS011;15921;52.034;20.650;2023-07-08T14:37:22;2.35;;;1.70;;
28766;SDS011;15921;52.034;20.650;2023-07-08T14:39:48;1.75;;;1.48;;
28766;SDS011;15921;52.034;20.650;2023-07-08T14:42:15;3.47;;;1.80;;
28766;SDS011;15921;52.034;20.650;2023-07-08T14:44:42;3.58;;;1.95;;
28766;SDS011;15921;52.034;20.650;2023-07-08T14:47:14;2.80;;;1.63;;
28766;SDS011;15921;52.034;20.650;2023-07-08T14:49:41;4.85;;;2.10;;
28766;SDS011;15921;52.034;20.650;2023-07-08T14:52:07;6.22;;;1.88;;
28766;SDS011;15921;52.034;20.650;2023-07-08T14:54:34;3.67;;;1.77;;
28766;SDS011;15921;52.034;20.650;2023-07-08T14:56:59;3.58;;;1.80;;
28766;SDS011;15921;52.034;20.650;2023-07-08T14:59:27;2.13;;;1.70;;
28766;SDS011;15921;52.034;20.650;2023-07-08T15:01:56;3.17;;;1.80;;
28766;SDS011;15921;52.034;20.650;2023-07-08T15:04:24;3.83;;;1.77;;
28766;SDS011;15921;52.034;20.650;2023-07-08T15:06:50;5.97;;;1.80;;
28766;SDS011;15921;52.034;20.650;2023-07-08T15:09:17;3.88;;;1.75;;
28766;SDS011;15921;52.034;20.650;2023-07-08T15:11:43;2.30;;;1.77;;
28766;SDS011;15921;52.034;20.650;2023-07-08T15:14:20;2.70;;;1.80;;
28766;SDS011;15921;52.034;20.650;2023-07-08T15:16:48;2.08;;;1.60;;
28766;SDS011;15921;52.034;20.650;2023-07-08T15:19:15;3.25;;;1.90;;
28766;SDS011;15921;52.034;20.650;2023-07-08T15:21:41;3.72;;;1.75;;
28766;SDS011;15921;52.034;20.650;2023-07-08T15:24:08;5.07;;;2.03;;
28766;SDS011;15921;52.034;20.650;2023-07-08T15:26:36;4.25;;;1.60;;
28766;SDS011;15921;52.034;20.650;2023-07-08T15:29:06;3.92;;;1.67;;
28766;SDS011;15921;52.034;20.650;2023-07-08T15:31:41;2.40;;;1.75;;
28766;SDS011;15921;52.034;20.650;2023-07-08T15:34:15;4.28;;;1.80;;
28766;SDS011;15921;52.034;20.650;2023-07-08T15:36:45;3.53;;;1.90;;
28766;SDS011;15921;52.034;20.650;2023-07-08T15:39:12;5.30;;;2.00;;
28766;SDS011;15921;52.034;20.650;2023-07-08T15:41:39;2.38;;;1.50;;
28766;SDS011;15921;52.034;20.650;2023-07-08T15:44:12;3.75;;;2.05;;
28766;SDS011;15921;52.034;20.650;2023-07-08T15:46:42;4.38;;;2.00;;
28766;SDS011;15921;52.034;20.650;2023-07-08T15:49:12;5.50;;;2.05;;
28766;SDS011;15921;52.034;20.650;2023-07-08T15:51:40;5.53;;;1.95;;
28766;SDS011;15921;52.034;20.650;2023-07-08T15:54:06;3.13;;;1.60;;
28766;SDS011;15921;52.034;20.650;2023-07-08T15:56:32;4.15;;;1.95;;
28766;SDS011;15921;52.034;20.650;2023-07-08T15:58:57;3.30;;;2.08;;
28766;SDS011;15921;52.034;20.650;2023-07-08T16:01:24;6.97;;;2.17;;